sensor_id;sensor_type;location;lat;lon;timestamp;pressure;altitude;pressure_sealevel;temperature;humidity
3598;BME280;1813;52.016;8.714;2023-07-13T00:02:03;-16261.94;;;-139.71;58.90
3598;BME280;1813;52.016;8.714;2023-07-13T00:04:37;-16261.94;;;-139.71;58.99
3598;BME280;1813;52.016;8.714;2023-07-13T00:07:11;-16261.94;;;-139.71;58.67
3598;BME280;1813;52.016;8.714;2023-07-13T00:09:50;-16261.94;;;-139.71;58.68
3598;BME280;1813;52.016;8.714;2023-07-13T00:12:27;-16261.94;;;-139.71;58.87
3598;BME280;1813;52.016;8.714;2023-07-13T00:15:06;-16261.94;;;-139.71;59.45
3598;BME280;1813;52.016;8.714;2023-07-13T00:17:41;-16261.94;;;-139.71;59.52
3598;BME280;1813;52.016;8.714;2023-07-13T00:20:15;-16261.94;;;-139.71;59.63
3598;BME280;1813;52.016;8.714;2023-07-13T00:22:52;-16261.94;;;-139.71;59.58
3598;BME280;1813;52.016;8.714;2023-07-13T00:25:27;-16261.94;;;-139.71;59.57
3598;BME280;1813;52.016;8.714;2023-07-13T00:28:02;-16261.94;;;-139.71;59.65
3598;BME280;1813;52.016;8.714;2023-07-13T00:30:39;-16261.94;;;-139.71;59.64
3598;BME280;1813;52.016;8.714;2023-07-13T00:33:12;-16261.94;;;-139.71;59.91
3598;BME280;1813;52.016;8.714;2023-07-13T00:35:46;-16261.94;;;-139.71;59.84
3598;BME280;1813;52.016;8.714;2023-07-13T00:38:20;-16261.94;;;-139.71;60.37
3598;BME280;1813;52.016;8.714;2023-07-13T00:40:54;-16261.94;;;-139.71;60.42
3598;BME280;1813;52.016;8.714;2023-07-13T00:43:28;-16261.94;;;-139.71;60.47
3598;BME280;1813;52.016;8.714;2023-07-13T00:46:21;-16261.94;;;-139.71;60.39
3598;BME280;1813;52.016;8.714;2023-07-13T00:49:01;-16261.94;;;-139.71;60.42
3598;BME280;1813;52.016;8.714;2023-07-13T00:51:43;-16261.94;;;-139.71;60.50
3598;BME280;1813;52.016;8.714;2023-07-13T00:54:21;-16261.94;;;-139.71;60.91
3598;BME280;1813;52.016;8.714;2023-07-13T00:56:59;-16261.94;;;-139.71;61.08
3598;BME280;1813;52.016;8.714;2023-07-13T00:59:34;-16261.94;;;-139.71;61.54
3598;BME280;1813;52.016;8.714;2023-07-13T01:02:13;-16261.94;;;-139.71;62.22
3598;BME280;1813;52.016;8.714;2023-07-13T01:04:47;-16261.94;;;-139.71;62.65
3598;BME280;1813;52.016;8.714;2023-07-13T01:07:21;-16261.94;;;-139.71;63.07
3598;BME280;1813;52.016;8.714;2023-07-13T01:09:55;-16261.94;;;-139.71;63.34
3598;BME280;1813;52.016;8.714;2023-07-13T01:12:28;-16261.94;;;-139.71;63.44
3598;BME280;1813;52.016;8.714;2023-07-13T01:15:03;-16261.94;;;-139.71;63.35
3598;BME280;1813;52.016;8.714;2023-07-13T01:17:40;-16261.94;;;-139.71;63.09
3598;BME280;1813;52.016;8.714;2023-07-13T01:20:14;-16261.94;;;-139.71;63.02
3598;BME280;1813;52.016;8.714;2023-07-13T01:22:51;-16261.94;;;-139.71;62.89
3598;BME280;1813;52.016;8.714;2023-07-13T01:25:26;-16261.94;;;-139.71;62.98
3598;BME280;1813;52.016;8.714;2023-07-13T01:28:00;-16261.94;;;-139.71;62.57
3598;BME280;1813;52.016;8.714;2023-07-13T01:30:34;-16261.94;;;-139.71;62.71
3598;BME280;1813;52.016;8.714;2023-07-13T01:33:09;-16261.94;;;-139.71;63.16
3598;BME280;1813;52.016;8.714;2023-07-13T01:35:43;-16261.94;;;-139.71;63.33
3598;BME280;1813;52.016;8.714;2023-07-13T01:38:24;-16261.94;;;-139.71;63.74
3598;BME280;1813;52.016;8.714;2023-07-13T01:40:57;-16261.94;;;-139.71;64.37
3598;BME280;1813;52.016;8.714;2023-07-13T01:43:31;-16261.94;;;-139.71;64.04
3598;BME280;1813;52.016;8.714;2023-07-13T01:46:05;-16261.94;;;-139.71;64.71
3598;BME280;1813;52.016;8.714;2023-07-13T01:48:40;-16261.94;;;-139.71;65.20
3598;BME280;1813;52.016;8.714;2023-07-13T01:51:15;-16261.94;;;-139.71;65.08
3598;BME280;1813;52.016;8.714;2023-07-13T01:53:52;-16261.94;;;-139.71;65.35
3598;BME280;1813;52.016;8.714;2023-07-13T01:56:28;-16261.94;;;-139.71;65.48
3598;BME280;1813;52.016;8.714;2023-07-13T01:59:03;-16261.94;;;-139.71;65.33
3598;BME280;1813;52.016;8.714;2023-07-13T02:01:38;-16261.94;;;-139.71;65.16
3598;BME280;1813;52.016;8.714;2023-07-13T02:04:13;-16261.94;;;-139.71;64.55
3598;BME280;1813;52.016;8.714;2023-07-13T02:06:47;-16261.94;;;-139.71;64.60
3598;BME280;1813;52.016;8.714;2023-07-13T02:09:23;-16261.94;;;-139.71;64.79
3598;BME280;1813;52.016;8.714;2023-07-13T02:11:57;-16261.94;;;-139.71;64.54
3598;BME280;1813;52.016;8.714;2023-07-13T02:14:36;-16261.94;;;-139.71;65.00
3598;BME280;1813;52.016;8.714;2023-07-13T02:17:10;-16261.94;;;-139.71;65.13
3598;BME280;1813;52.016;8.714;2023-07-13T02:19:44;-16261.94;;;-139.71;66.40
3598;BME280;1813;52.016;8.714;2023-07-13T02:22:17;-16261.94;;;-139.71;66.93
3598;BME280;1813;52.016;8.714;2023-07-13T02:24:54;-16261.94;;;-139.71;66.97
3598;BME280;1813;52.016;8.714;2023-07-13T02:27:28;-16261.94;;;-139.71;67.45
3598;BME280;1813;52.016;8.714;2023-07-13T02:30:02;-16261.94;;;-139.71;67.59
3598;BME280;1813;52.016;8.714;2023-07-13T02:32:35;-16261.94;;;-139.71;67.48
3598;BME280;1813;52.016;8.714;2023-07-13T02:35:09;-16261.94;;;-139.71;67.49
3598;BME280;1813;52.016;8.714;2023-07-13T02:37:43;-16261.94;;;-139.71;67.83
3598;BME280;1813;52.016;8.714;2023-07-13T02:40:19;-16261.94;;;-139.71;67.91
3598;BME280;1813;52.016;8.714;2023-07-13T02:42:53;-16261.94;;;-139.71;67.82
3598;BME280;1813;52.016;8.714;2023-07-13T02:45:27;-16261.94;;;-139.71;67.49
3598;BME280;1813;52.016;8.714;2023-07-13T02:48:00;-16261.94;;;-139.71;66.91
3598;BME280;1813;52.016;8.714;2023-07-13T02:50:34;-16261.94;;;-139.71;66.85
3598;BME280;1813;52.016;8.714;2023-07-13T02:53:08;-16261.94;;;-139.71;66.92
3598;BME280;1813;52.016;8.714;2023-07-13T02:55:44;-16261.94;;;-139.71;66.95
3598;BME280;1813;52.016;8.714;2023-07-13T02:58:18;-16261.94;;;-139.71;67.51
3598;BME280;1813;52.016;8.714;2023-07-13T03:00:52;-16261.94;;;-139.71;68.64
3598;BME280;1813;52.016;8.714;2023-07-13T03:03:26;-16261.94;;;-139.71;68.00
3598;BME280;1813;52.016;8.714;2023-07-13T03:06:02;-16261.94;;;-139.71;67.58
3598;BME280;1813;52.016;8.714;2023-07-13T03:08:46;-16261.94;;;-139.71;67.83
3598;BME280;1813;52.016;8.714;2023-07-13T03:11:24;-16261.94;;;-139.71;67.83
3598;BME280;1813;52.016;8.714;2023-07-13T03:14:16;-16261.94;;;-139.71;68.04
3598;BME280;1813;52.016;8.714;2023-07-13T03:16:51;-16261.94;;;-139.71;67.90
3598;BME280;1813;52.016;8.714;2023-07-13T03:19:28;-16261.94;;;-139.71;68.15
3598;BME280;1813;52.016;8.714;2023-07-13T03:22:02;-16261.94;;;-139.71;67.85
3598;BME280;1813;52.016;8.714;2023-07-13T03:24:37;-16261.94;;;-139.71;67.85
3598;BME280;1813;52.016;8.714;2023-07-13T03:27:15;-16261.94;;;-139.71;68.22
3598;BME280;1813;52.016;8.714;2023-07-13T03:29:51;-16261.94;;;-139.71;67.77
3598;BME280;1813;52.016;8.714;2023-07-13T03:32:25;-16261.94;;;-139.71;67.60
3598;BME280;1813;52.016;8.714;2023-07-13T03:34:59;-16261.94;;;-139.71;66.38
3598;BME280;1813;52.016;8.714;2023-07-13T03:37:36;-16261.94;;;-139.71;66.69
3598;BME280;1813;52.016;8.714;2023-07-13T03:40:18;-16261.94;;;-139.71;68.36
3598;BME280;1813;52.016;8.714;2023-07-13T03:42:55;-16261.94;;;-139.71;68.19
3598;BME280;1813;52.016;8.714;2023-07-13T03:45:29;-16261.94;;;-139.71;67.63
3598;BME280;1813;52.016;8.714;2023-07-13T03:48:04;-16261.94;;;-139.71;67.31
3598;BME280;1813;52.016;8.714;2023-07-13T03:50:39;-16261.94;;;-139.71;66.51
3598;BME280;1813;52.016;8.714;2023-07-13T03:53:13;-16261.94;;;-139.71;66.61
3598;BME280;1813;52.016;8.714;2023-07-13T03:55:47;-16261.94;;;-139.71;66.26
3598;BME280;1813;52.016;8.714;2023-07-13T03:58:30;-16261.94;;;-139.71;66.54
3598;BME280;1813;52.016;8.714;2023-07-13T04:01:11;-16261.94;;;-139.71;66.84
3598;BME280;1813;52.016;8.714;2023-07-13T04:03:45;-16261.94;;;-139.71;66.98
3598;BME280;1813;52.016;8.714;2023-07-13T04:06:21;-16261.94;;;-139.71;67.31
3598;BME280;1813;52.016;8.714;2023-07-13T04:08:57;-16261.94;;;-139.71;67.17
3598;BME280;1813;52.016;8.714;2023-07-13T04:11:32;-16261.94;;;-139.71;67.52
3598;BME280;1813;52.016;8.714;2023-07-13T04:14:09;-16261.94;;;-139.71;67.24
3598;BME280;1813;52.016;8.714;2023-07-13T04:16:43;-16261.94;;;-139.71;67.43
3598;BME280;1813;52.016;8.714;2023-07-13T04:19:17;-16261.94;;;-139.71;67.40
3598;BME280;1813;52.016;8.714;2023-07-13T04:21:51;-16261.94;;;-139.71;67.06
3598;BME280;1813;52.016;8.714;2023-07-13T04:24:25;-16261.94;;;-139.71;67.11
3598;BME280;1813;52.016;8.714;2023-07-13T04:26:59;-16261.94;;;-139.71;67.30
3598;BME280;1813;52.016;8.714;2023-07-13T04:29:36;-16261.94;;;-139.71;66.73
3598;BME280;1813;52.016;8.714;2023-07-13T04:32:10;-16261.94;;;-139.71;66.29
3598;BME280;1813;52.016;8.714;2023-07-13T04:34:43;-16261.94;;;-139.71;66.07
3598;BME280;1813;52.016;8.714;2023-07-13T04:37:17;-16261.94;;;-139.71;66.16
3598;BME280;1813;52.016;8.714;2023-07-13T04:39:51;-16261.94;;;-139.71;66.32
3598;BME280;1813;52.016;8.714;2023-07-13T04:42:25;-16261.94;;;-139.71;65.69
3598;BME280;1813;52.016;8.714;2023-07-13T04:45:01;-16261.94;;;-139.71;65.25
3598;BME280;1813;52.016;8.714;2023-07-13T04:47:35;-16261.94;;;-139.71;65.04
3598;BME280;1813;52.016;8.714;2023-07-13T04:50:12;-16261.94;;;-139.71;64.91
3598;BME280;1813;52.016;8.714;2023-07-13T04:52:50;-16261.94;;;-139.71;64.89
3598;BME280;1813;52.016;8.714;2023-07-13T04:55:24;-16261.94;;;-139.71;64.82
3598;BME280;1813;52.016;8.714;2023-07-13T04:58:01;-16261.94;;;-139.71;64.62
3598;BME280;1813;52.016;8.714;2023-07-13T05:00:38;-16261.94;;;-139.71;64.89
3598;BME280;1813;52.016;8.714;2023-07-13T05:03:12;-16261.94;;;-139.71;63.67
3598;BME280;1813;52.016;8.714;2023-07-13T05:05:55;-16261.94;;;-139.71;63.81
3598;BME280;1813;52.016;8.714;2023-07-13T05:08:29;-16261.94;;;-139.71;63.24
3598;BME280;1813;52.016;8.714;2023-07-13T05:11:04;-16261.94;;;-139.71;63.52
3598;BME280;1813;52.016;8.714;2023-07-13T05:13:38;-16261.94;;;-139.71;63.30
3598;BME280;1813;52.016;8.714;2023-07-13T05:16:14;-16261.94;;;-139.71;62.11
3598;BME280;1813;52.016;8.714;2023-07-13T05:18:48;-16261.94;;;-139.71;62.87
3598;BME280;1813;52.016;8.714;2023-07-13T05:21:22;-16261.94;;;-139.71;62.98
3598;BME280;1813;52.016;8.714;2023-07-13T05:23:56;-16261.94;;;-139.71;62.74
3598;BME280;1813;52.016;8.714;2023-07-13T05:26:30;-16261.94;;;-139.71;62.81
3598;BME280;1813;52.016;8.714;2023-07-13T05:29:03;-16261.94;;;-139.71;62.35
3598;BME280;1813;52.016;8.714;2023-07-13T05:31:40;-16261.94;;;-139.71;62.74
3598;BME280;1813;52.016;8.714;2023-07-13T05:34:14;-16261.94;;;-139.71;62.36
3598;BME280;1813;52.016;8.714;2023-07-13T05:36:48;-16261.94;;;-139.71;62.20
3598;BME280;1813;52.016;8.714;2023-07-13T05:39:22;-16261.94;;;-139.71;61.57
3598;BME280;1813;52.016;8.714;2023-07-13T05:41:56;-16261.94;;;-139.71;62.39
3598;BME280;1813;52.016;8.714;2023-07-13T05:44:30;-16261.94;;;-139.71;61.83
3598;BME280;1813;52.016;8.714;2023-07-13T05:47:07;-16261.94;;;-139.71;61.72
3598;BME280;1813;52.016;8.714;2023-07-13T05:49:41;-16261.94;;;-139.71;61.21
3598;BME280;1813;52.016;8.714;2023-07-13T05:52:17;-16261.94;;;-139.71;61.32
3598;BME280;1813;52.016;8.714;2023-07-13T05:54:51;-16261.94;;;-139.71;61.19
3598;BME280;1813;52.016;8.714;2023-07-13T05:57:25;-16261.94;;;-139.71;61.52
3598;BME280;1813;52.016;8.714;2023-07-13T05:59:58;-16261.94;;;-139.71;61.14
3598;BME280;1813;52.016;8.714;2023-07-13T06:02:45;-16261.94;;;-139.71;60.79
3598;BME280;1813;52.016;8.714;2023-07-13T06:05:19;-16261.94;;;-139.71;60.47
3598;BME280;1813;52.016;8.714;2023-07-13T06:07:53;-16261.94;;;-139.71;59.81
3598;BME280;1813;52.016;8.714;2023-07-13T06:10:26;-16261.94;;;-139.71;60.01
3598;BME280;1813;52.016;8.714;2023-07-13T06:13:00;-16261.94;;;-139.71;60.14
3598;BME280;1813;52.016;8.714;2023-07-13T06:15:34;-16261.94;;;-139.71;60.03
3598;BME280;1813;52.016;8.714;2023-07-13T06:18:11;-16261.94;;;-139.71;60.05
3598;BME280;1813;52.016;8.714;2023-07-13T06:20:45;-16261.94;;;-139.71;59.77
3598;BME280;1813;52.016;8.714;2023-07-13T06:23:18;-16261.94;;;-139.71;59.53
3598;BME280;1813;52.016;8.714;2023-07-13T06:25:53;-16261.94;;;-139.71;59.13
3598;BME280;1813;52.016;8.714;2023-07-13T06:28:27;-16261.94;;;-139.71;59.31
3598;BME280;1813;52.016;8.714;2023-07-13T06:31:04;-16261.94;;;-139.71;58.22
3598;BME280;1813;52.016;8.714;2023-07-13T06:33:41;-16261.94;;;-139.71;58.26
3598;BME280;1813;52.016;8.714;2023-07-13T06:36:15;-16261.94;;;-139.71;58.50
3598;BME280;1813;52.016;8.714;2023-07-13T06:38:49;-16261.94;;;-139.71;58.62
3598;BME280;1813;52.016;8.714;2023-07-13T06:41:23;-16261.94;;;-139.71;59.09
3598;BME280;1813;52.016;8.714;2023-07-13T06:43:57;-16261.94;;;-139.71;58.92
3598;BME280;1813;52.016;8.714;2023-07-13T06:46:31;-16261.94;;;-139.71;58.19
3598;BME280;1813;52.016;8.714;2023-07-13T06:49:08;-16261.94;;;-139.71;58.36
3598;BME280;1813;52.016;8.714;2023-07-13T06:51:42;-16261.94;;;-139.71;59.31
3598;BME280;1813;52.016;8.714;2023-07-13T06:54:16;-16261.94;;;-139.71;58.96
3598;BME280;1813;52.016;8.714;2023-07-13T06:56:51;-16261.94;;;-139.71;58.71
3598;BME280;1813;52.016;8.714;2023-07-13T06:59:24;-16261.94;;;-139.71;57.91
3598;BME280;1813;52.016;8.714;2023-07-13T07:01:58;-16261.94;;;-139.71;58.99
3598;BME280;1813;52.016;8.714;2023-07-13T07:04:35;-16261.94;;;-139.71;58.78
3598;BME280;1813;52.016;8.714;2023-07-13T07:07:09;-16261.94;;;-139.71;58.39
3598;BME280;1813;52.016;8.714;2023-07-13T07:09:43;-16261.94;;;-139.71;58.14
3598;BME280;1813;52.016;8.714;2023-07-13T07:12:18;-16261.94;;;-139.71;57.81
3598;BME280;1813;52.016;8.714;2023-07-13T07:14:52;-16261.94;;;-139.71;57.27
3598;BME280;1813;52.016;8.714;2023-07-13T07:17:25;-16261.94;;;-139.71;57.18
3598;BME280;1813;52.016;8.714;2023-07-13T07:20:02;-16261.94;;;-139.71;57.75
3598;BME280;1813;52.016;8.714;2023-07-13T07:22:36;-16261.94;;;-139.71;57.57
3598;BME280;1813;52.016;8.714;2023-07-13T07:25:13;-16261.94;;;-139.71;57.39
3598;BME280;1813;52.016;8.714;2023-07-13T07:27:46;-16261.94;;;-139.71;57.23
3598;BME280;1813;52.016;8.714;2023-07-13T07:30:20;-16261.94;;;-139.71;57.48
3598;BME280;1813;52.016;8.714;2023-07-13T07:32:54;-16261.94;;;-139.71;57.15
3598;BME280;1813;52.016;8.714;2023-07-13T07:35:31;-16261.94;;;-139.71;56.15
3598;BME280;1813;52.016;8.714;2023-07-13T07:38:05;-16261.94;;;-139.71;56.08
3598;BME280;1813;52.016;8.714;2023-07-13T07:40:40;-16261.94;;;-139.71;56.01
3598;BME280;1813;52.016;8.714;2023-07-13T07:43:14;-16261.94;;;-139.71;54.99
3598;BME280;1813;52.016;8.714;2023-07-13T07:45:48;-16261.94;;;-139.71;53.81
3598;BME280;1813;52.016;8.714;2023-07-13T07:48:22;-16261.94;;;-139.71;53.39
3598;BME280;1813;52.016;8.714;2023-07-13T07:50:58;-16261.94;;;-139.71;53.13
3598;BME280;1813;52.016;8.714;2023-07-13T07:53:32;-16261.94;;;-139.71;53.60
3598;BME280;1813;52.016;8.714;2023-07-13T07:56:06;-16261.94;;;-139.71;53.86
3598;BME280;1813;52.016;8.714;2023-07-13T07:58:40;-16261.94;;;-139.71;54.20
3598;BME280;1813;52.016;8.714;2023-07-13T08:01:15;-16261.94;;;-139.71;54.14
3598;BME280;1813;52.016;8.714;2023-07-13T08:03:49;-16261.94;;;-139.71;52.80
3598;BME280;1813;52.016;8.714;2023-07-13T08:06:25;-16261.94;;;-139.71;52.42
3598;BME280;1813;52.016;8.714;2023-07-13T08:09:00;-16261.94;;;-139.71;52.12
3598;BME280;1813;52.016;8.714;2023-07-13T08:11:35;-16261.94;;;-139.71;52.82
3598;BME280;1813;52.016;8.714;2023-07-13T08:14:09;-16261.94;;;-139.71;52.51
3598;BME280;1813;52.016;8.714;2023-07-13T08:16:46;-16261.94;;;-139.71;53.15
3598;BME280;1813;52.016;8.714;2023-07-13T08:19:20;-16261.94;;;-139.71;53.22
3598;BME280;1813;52.016;8.714;2023-07-13T08:21:56;-16261.94;;;-139.71;53.69
3598;BME280;1813;52.016;8.714;2023-07-13T08:24:30;-16261.94;;;-139.71;52.78
3598;BME280;1813;52.016;8.714;2023-07-13T08:27:05;-16261.94;;;-139.71;53.02
3598;BME280;1813;52.016;8.714;2023-07-13T08:29:39;-16261.94;;;-139.71;52.48
3598;BME280;1813;52.016;8.714;2023-07-13T08:32:13;-16261.94;;;-139.71;53.25
3598;BME280;1813;52.016;8.714;2023-07-13T08:34:47;-16261.94;;;-139.71;52.83
3598;BME280;1813;52.016;8.714;2023-07-13T08:37:23;-16261.94;;;-139.71;52.38
3598;BME280;1813;52.016;8.714;2023-07-13T08:39:58;-16261.94;;;-139.71;53.06
3598;BME280;1813;52.016;8.714;2023-07-13T08:42:36;-16261.94;;;-139.71;51.29
3598;BME280;1813;52.016;8.714;2023-07-13T08:45:18;-16261.94;;;-139.71;51.60
3598;BME280;1813;52.016;8.714;2023-07-13T08:47:56;-16261.94;;;-139.71;50.51
3598;BME280;1813;52.016;8.714;2023-07-13T08:50:35;-16261.94;;;-139.71;50.85
3598;BME280;1813;52.016;8.714;2023-07-13T08:53:18;-16261.94;;;-139.71;50.46
3598;BME280;1813;52.016;8.714;2023-07-13T08:56:00;-16261.94;;;-139.71;49.94
3598;BME280;1813;52.016;8.714;2023-07-13T08:58:36;-16261.94;;;-139.71;48.79
3598;BME280;1813;52.016;8.714;2023-07-13T09:01:25;-16261.94;;;-139.71;48.09
3598;BME280;1813;52.016;8.714;2023-07-13T09:04:06;-16261.94;;;-139.71;47.94
3598;BME280;1813;52.016;8.714;2023-07-13T09:06:55;-16261.94;;;-139.71;46.90
3598;BME280;1813;52.016;8.714;2023-07-13T09:09:43;-16261.94;;;-139.71;47.87
3598;BME280;1813;52.016;8.714;2023-07-13T09:12:31;-16261.94;;;-139.71;48.57
3598;BME280;1813;52.016;8.714;2023-07-13T09:15:21;-16261.94;;;-139.71;46.94
3598;BME280;1813;52.016;8.714;2023-07-13T09:18:00;-16261.94;;;-139.71;45.87
3598;BME280;1813;52.016;8.714;2023-07-13T09:20:37;-16261.94;;;-139.71;44.88
3598;BME280;1813;52.016;8.714;2023-07-13T09:23:16;-16261.94;;;-139.71;45.55
3598;BME280;1813;52.016;8.714;2023-07-13T09:26:00;-16261.94;;;-139.71;44.59
3598;BME280;1813;52.016;8.714;2023-07-13T09:28:39;-16261.94;;;-139.71;44.00
3598;BME280;1813;52.016;8.714;2023-07-13T09:31:15;-16261.94;;;-139.71;43.21
3598;BME280;1813;52.016;8.714;2023-07-13T09:33:49;-16261.94;;;-139.71;44.07
3598;BME280;1813;52.016;8.714;2023-07-13T09:36:27;-16261.94;;;-139.71;42.18
3598;BME280;1813;52.016;8.714;2023-07-13T09:39:04;-16261.94;;;-139.71;42.13
3598;BME280;1813;52.016;8.714;2023-07-13T09:41:54;-16261.94;;;-139.71;42.54
3598;BME280;1813;52.016;8.714;2023-07-13T09:44:35;-16261.94;;;-139.71;43.45
3598;BME280;1813;52.016;8.714;2023-07-13T09:47:16;-16261.94;;;-139.71;43.40
3598;BME280;1813;52.016;8.714;2023-07-13T09:49:55;-16261.94;;;-139.71;43.40
3598;BME280;1813;52.016;8.714;2023-07-13T09:52:42;-16261.94;;;-139.71;44.29
3598;BME280;1813;52.016;8.714;2023-07-13T09:55:29;-16261.94;;;-139.71;43.43
3598;BME280;1813;52.016;8.714;2023-07-13T09:58:11;-16261.94;;;-139.71;42.47
3598;BME280;1813;52.016;8.714;2023-07-13T10:00:56;-16261.94;;;-139.71;42.81
3598;BME280;1813;52.016;8.714;2023-07-13T10:03:32;-16261.94;;;-139.71;42.00
3598;BME280;1813;52.016;8.714;2023-07-13T10:06:13;-16261.94;;;-139.71;42.93
3598;BME280;1813;52.016;8.714;2023-07-13T10:08:49;-16261.94;;;-139.71;41.76
3598;BME280;1813;52.016;8.714;2023-07-13T10:11:27;-16261.94;;;-139.71;41.75
3598;BME280;1813;52.016;8.714;2023-07-13T10:14:14;-16261.94;;;-139.71;41.81
3598;BME280;1813;52.016;8.714;2023-07-13T10:16:52;-16261.94;;;-139.71;41.78
3598;BME280;1813;52.016;8.714;2023-07-13T10:19:34;-16261.94;;;-139.71;41.43
3598;BME280;1813;52.016;8.714;2023-07-13T10:22:14;-16261.94;;;-139.71;41.11
3598;BME280;1813;52.016;8.714;2023-07-13T10:24:53;-16261.94;;;-139.71;40.21
3598;BME280;1813;52.016;8.714;2023-07-13T10:27:32;-16261.94;;;-139.71;40.81
3598;BME280;1813;52.016;8.714;2023-07-13T10:30:13;-16261.94;;;-139.71;40.57
3598;BME280;1813;52.016;8.714;2023-07-13T10:32:49;-16261.94;;;-139.71;41.16
3598;BME280;1813;52.016;8.714;2023-07-13T10:35:26;-16261.94;;;-139.71;41.49
3598;BME280;1813;52.016;8.714;2023-07-13T10:38:05;-16261.94;;;-139.71;42.14
3598;BME280;1813;52.016;8.714;2023-07-13T10:40:51;-16261.94;;;-139.71;41.78
3598;BME280;1813;52.016;8.714;2023-07-13T10:43:33;-16261.94;;;-139.71;40.33
3598;BME280;1813;52.016;8.714;2023-07-13T10:46:12;-16261.94;;;-139.71;40.45
3598;BME280;1813;52.016;8.714;2023-07-13T10:48:51;-16261.94;;;-139.71;40.25
3598;BME280;1813;52.016;8.714;2023-07-13T10:51:27;-16261.94;;;-139.71;40.26
3598;BME280;1813;52.016;8.714;2023-07-13T10:54:18;-16261.94;;;-139.71;40.07
3598;BME280;1813;52.016;8.714;2023-07-13T10:57:07;-16261.94;;;-139.71;39.88
3598;BME280;1813;52.016;8.714;2023-07-13T11:00:08;-16261.94;;;-139.71;40.54
3598;BME280;1813;52.016;8.714;2023-07-13T11:02:56;-16261.94;;;-139.71;41.05
3598;BME280;1813;52.016;8.714;2023-07-13T11:05:33;-16261.94;;;-139.71;42.23
3598;BME280;1813;52.016;8.714;2023-07-13T11:08:32;-16261.94;;;-139.71;41.17
3598;BME280;1813;52.016;8.714;2023-07-13T11:14:32;-16261.94;;;-139.71;40.02
3598;BME280;1813;52.016;8.714;2023-07-13T11:17:29;-16261.94;;;-139.71;40.19
3598;BME280;1813;52.016;8.714;2023-07-13T11:20:21;-16261.94;;;-139.71;39.43
3598;BME280;1813;52.016;8.714;2023-07-13T11:23:17;-16261.94;;;-139.71;39.69
3598;BME280;1813;52.016;8.714;2023-07-13T11:25:52;-16261.94;;;-139.71;39.27
3598;BME280;1813;52.016;8.714;2023-07-13T11:28:27;-16261.94;;;-139.71;39.43
3598;BME280;1813;52.016;8.714;2023-07-13T11:31:14;-16261.94;;;-139.71;39.63
3598;BME280;1813;52.016;8.714;2023-07-13T11:33:57;-16261.94;;;-139.71;39.28
3598;BME280;1813;52.016;8.714;2023-07-13T11:36:38;-16261.94;;;-139.71;40.19
3598;BME280;1813;52.016;8.714;2023-07-13T11:39:18;-16261.94;;;-139.71;40.90
3598;BME280;1813;52.016;8.714;2023-07-13T11:41:55;-16261.94;;;-139.71;40.92
3598;BME280;1813;52.016;8.714;2023-07-13T11:44:32;-16261.94;;;-139.71;39.85
3598;BME280;1813;52.016;8.714;2023-07-13T11:47:09;-16261.94;;;-139.71;40.09
3598;BME280;1813;52.016;8.714;2023-07-13T11:49:47;-16261.94;;;-139.71;40.05
3598;BME280;1813;52.016;8.714;2023-07-13T11:52:31;-16261.94;;;-139.71;40.66
3598;BME280;1813;52.016;8.714;2023-07-13T11:55:17;-16261.94;;;-139.71;40.19
3598;BME280;1813;52.016;8.714;2023-07-13T11:57:58;-16261.94;;;-139.71;39.90
3598;BME280;1813;52.016;8.714;2023-07-13T12:00:33;-16261.94;;;-139.71;38.48
3598;BME280;1813;52.016;8.714;2023-07-13T12:03:11;-16261.94;;;-139.71;38.73
3598;BME280;1813;52.016;8.714;2023-07-13T12:06:01;-16261.94;;;-139.71;40.13
3598;BME280;1813;52.016;8.714;2023-07-13T12:08:40;-16261.94;;;-139.71;39.89
3598;BME280;1813;52.016;8.714;2023-07-13T12:11:16;-16261.94;;;-139.71;39.03
3598;BME280;1813;52.016;8.714;2023-07-13T12:13:52;-16261.94;;;-139.71;38.83
3598;BME280;1813;52.016;8.714;2023-07-13T12:16:29;-16261.94;;;-139.71;40.00
3598;BME280;1813;52.016;8.714;2023-07-13T12:19:16;-16261.94;;;-139.71;40.01
3598;BME280;1813;52.016;8.714;2023-07-13T12:21:53;-16261.94;;;-139.71;40.59
3598;BME280;1813;52.016;8.714;2023-07-13T12:24:31;-16261.94;;;-139.71;38.38
3598;BME280;1813;52.016;8.714;2023-07-13T12:27:06;-16261.94;;;-139.71;37.74
3598;BME280;1813;52.016;8.714;2023-07-13T12:29:49;-16261.94;;;-139.71;37.61
3598;BME280;1813;52.016;8.714;2023-07-13T12:32:25;-16261.94;;;-139.71;37.76
3598;BME280;1813;52.016;8.714;2023-07-13T12:35:13;-16261.94;;;-139.71;38.55
3598;BME280;1813;52.016;8.714;2023-07-13T12:37:47;-16261.94;;;-139.71;39.06
3598;BME280;1813;52.016;8.714;2023-07-13T12:40:27;-16261.94;;;-139.71;39.17
3598;BME280;1813;52.016;8.714;2023-07-13T12:43:03;-16261.94;;;-139.71;38.74
3598;BME280;1813;52.016;8.714;2023-07-13T12:45:38;-16261.94;;;-139.71;38.49
3598;BME280;1813;52.016;8.714;2023-07-13T12:48:15;-16261.94;;;-139.71;38.00
3598;BME280;1813;52.016;8.714;2023-07-13T12:50:50;-16261.94;;;-139.71;37.22
3598;BME280;1813;52.016;8.714;2023-07-13T12:53:28;-16261.94;;;-139.71;36.23
3598;BME280;1813;52.016;8.714;2023-07-13T12:56:05;-16261.94;;;-139.71;36.02
3598;BME280;1813;52.016;8.714;2023-07-13T12:58:41;-16261.94;;;-139.71;36.51
3598;BME280;1813;52.016;8.714;2023-07-13T13:01:17;-16261.94;;;-139.71;36.13
3598;BME280;1813;52.016;8.714;2023-07-13T13:03:52;-16261.94;;;-139.71;35.65
3598;BME280;1813;52.016;8.714;2023-07-13T13:06:28;-16261.94;;;-139.71;35.56
3598;BME280;1813;52.016;8.714;2023-07-13T13:09:03;-16261.94;;;-139.71;36.09
3598;BME280;1813;52.016;8.714;2023-07-13T13:11:45;-16261.94;;;-139.71;35.38
3598;BME280;1813;52.016;8.714;2023-07-13T13:14:19;-16261.94;;;-139.71;35.21
3598;BME280;1813;52.016;8.714;2023-07-13T13:16:52;-16261.94;;;-139.71;35.39
3598;BME280;1813;52.016;8.714;2023-07-13T13:19:29;-16261.94;;;-139.71;35.61
3598;BME280;1813;52.016;8.714;2023-07-13T13:22:05;-16261.94;;;-139.71;35.40
3598;BME280;1813;52.016;8.714;2023-07-13T13:24:39;-16261.94;;;-139.71;35.24
3598;BME280;1813;52.016;8.714;2023-07-13T13:27:19;-16261.94;;;-139.71;35.39
3598;BME280;1813;52.016;8.714;2023-07-13T13:29:54;-16261.94;;;-139.71;35.59
3598;BME280;1813;52.016;8.714;2023-07-13T13:32:28;-16261.94;;;-139.71;35.40
3598;BME280;1813;52.016;8.714;2023-07-13T13:35:02;-16261.94;;;-139.71;35.37
3598;BME280;1813;52.016;8.714;2023-07-13T13:37:36;-16261.94;;;-139.71;35.47
3598;BME280;1813;52.016;8.714;2023-07-13T13:40:17;-16261.94;;;-139.71;35.94
3598;BME280;1813;52.016;8.714;2023-07-13T13:42:54;-16261.94;;;-139.71;35.66
3598;BME280;1813;52.016;8.714;2023-07-13T13:45:28;-16261.94;;;-139.71;35.85